地図

経路データ

SID SEASON NUMBER BASIN SUBBASIN NAME ISO_TIME NATURE LAT LON WMO_WIND WMO_PRES WMO_AGENCY TRACK_TYPE DIST2LAND LANDFALL IFLAG USA_AGENCY USA_ATCF_ID USA_LAT USA_LON USA_RECORD USA_STATUS USA_WIND USA_PRES USA_SSHS USA_R34_NE USA_R34_SE USA_R34_SW USA_R34_NW USA_R50_NE USA_R50_SE USA_R50_SW USA_R50_NW USA_R64_NE USA_R64_SE USA_R64_SW USA_R64_NW USA_POCI USA_ROCI USA_RMW USA_EYE TOKYO_LAT TOKYO_LON TOKYO_GRADE TOKYO_WIND TOKYO_PRES TOKYO_R50_DIR TOKYO_R50_LONG TOKYO_R50_SHORT TOKYO_R30_DIR TOKYO_R30_LONG TOKYO_R30_SHORT TOKYO_LAND CMA_LAT CMA_LON CMA_CAT CMA_WIND CMA_PRES HKO_LAT HKO_LON HKO_CAT HKO_WIND HKO_PRES NEWDELHI_LAT NEWDELHI_LON NEWDELHI_GRADE NEWDELHI_WIND NEWDELHI_PRES NEWDELHI_CI NEWDELHI_DP NEWDELHI_POCI REUNION_LAT REUNION_LON REUNION_TYPE REUNION_WIND REUNION_PRES REUNION_TNUM REUNION_CI REUNION_RMW REUNION_R34_NE REUNION_R34_SE REUNION_R34_SW REUNION_R34_NW REUNION_R50_NE REUNION_R50_SE REUNION_R50_SW REUNION_R50_NW REUNION_R64_NE REUNION_R64_SE REUNION_R64_SW REUNION_R64_NW BOM_LAT BOM_LON BOM_TYPE BOM_WIND BOM_PRES BOM_TNUM BOM_CI BOM_RMW BOM_R34_NE BOM_R34_SE BOM_R34_SW BOM_R34_NW BOM_R50_NE BOM_R50_SE BOM_R50_SW BOM_R50_NW BOM_R64_NE BOM_R64_SE BOM_R64_SW BOM_R64_NW BOM_ROCI BOM_POCI BOM_EYE BOM_POS_METHOD BOM_PRES_METHOD NADI_LAT NADI_LON NADI_CAT NADI_WIND NADI_PRES WELLINGTON_LAT WELLINGTON_LON WELLINGTON_WIND WELLINGTON_PRES DS824_LAT DS824_LON DS824_STAGE DS824_WIND DS824_PRES TD9636_LAT TD9636_LON TD9636_STAGE TD9636_WIND TD9636_PRES TD9635_LAT TD9635_LON TD9635_WIND TD9635_PRES TD9635_ROCI NEUMANN_LAT NEUMANN_LON NEUMANN_CLASS NEUMANN_WIND NEUMANN_PRES MLC_LAT MLC_LON MLC_CLASS MLC_WIND MLC_PRES USA_GUST BOM_GUST BOM_GUST_PER REUNION_GUST REUNION_GUST_PER USA_SEAHGT USA_SEARAD_NE USA_SEARAD_SE USA_SEARAD_SW USA_SEARAD_NW STORM_SPEED STORM_DIR
1865297N28280 1865 24 NA NA NOT_NAMED 1865-10-24 06:00:00 TS 28.1000 -79.8000 spur-other 72 72 _____________O -1 28.1000 -79.8000 HU 90 10 47
1865297N28280 1865 24 NA NA NOT_NAMED 1865-10-24 09:00:00 TS 28.4499 -79.3719 spur-other 107 107 _____________P -1 28.4229 -79.3528 HU 90 11 49
1865297N28280 1865 24 NA NA NOT_NAMED 1865-10-24 12:00:00 TS 28.8000 -78.9000 spur-other 159 159 _____________O -1 28.8000 -78.9000 HU 90 12 46
1865297N28280 1865 24 NA NA NOT_NAMED 1865-10-24 15:00:00 TS 29.2571 -78.4300 spur-other 222 222 _____________P -1 29.2571 -78.4300 HU 90 13 44
1865297N28280 1865 24 NA NA NOT_NAMED 1865-10-24 18:00:00 TS 29.7000 -77.9000 spur-other 285 285 _____________O -1 29.7000 -77.9000 HU 90 12 52
1865297N28280 1865 24 NA NA NOT_NAMED 1865-10-24 21:00:00 TS 30.0293 -77.3093 spur-other 352 352 _____________P -1 30.0293 -77.3093 HU 90 13 62
1865297N28280 1865 24 NA NA NOT_NAMED 1865-10-25 00:00:00 TS 30.3000 -76.6000 spur-other 400 400 _____________O -1 30.3000 -76.6000 HU 90 14 70
1865297N28280 1865 24 NA NA NOT_NAMED 1865-10-25 03:00:00 TS 30.5269 -75.7659 spur-other 431 426 _____________P -1 30.5269 -75.7659 HU 90 16 72
1865297N28280 1865 24 NA NA NOT_NAMED 1865-10-25 06:00:00 TS 30.8000 -74.8000 spur-other 457 457 _____________O -1 30.8000 -74.8000 HU 90 19 68
1865297N28280 1865 24 NA NA NOT_NAMED 1865-10-25 09:00:00 TS 31.2200 -73.7228 spur-other 469 465 _____________P -1 31.2200 -73.7228 HU 90 21 64
1865297N28280 1865 24 NA NA NOT_NAMED 1865-10-25 12:00:00 TS 31.7000 -72.6000 spur-other 492 492 _____________O -1 31.7000 -72.6000 HU 90 21 63
1865297N28280 1865 24 NA NA NOT_NAMED 1865-10-25 15:00:00 TS 32.1868 -71.5279 spur-other 536 536 _____________P -1 32.1868 -71.5279 HU 90 20 63
1865297N28280 1865 24 NA NA NOT_NAMED 1865-10-25 18:00:00 TS 32.6000 -70.5000 spur-other 581 581 _____________O -1 32.6000 -70.5000 HU 90 18 69
1865297N28280 1865 24 NA NA NOT_NAMED 1865-10-25 21:00:00 TS 32.8286 -69.5479 spur-other 643 643 _____________P -1 32.8286 -69.5479 HU 90 16 76
1865297N28280 1865 24 NA NA NOT_NAMED 1865-10-26 00:00:00 TS 33.0000 -68.6000 spur-other 704 704 _____________O -1 33.0000 -68.6000 HU 90 17 76
1865297N28280 1865 24 NA NA NOT_NAMED 1865-10-26 03:00:00 TS 33.2497 -67.5576 spur-other 778 778 _____________P -1 33.2497 -67.5576 HU 90 18 74
1865297N28280 1865 24 NA NA NOT_NAMED 1865-10-26 06:00:00 TS 33.5000 -66.5000 spur-other 860 860 _____________O -1 33.5000 -66.5000 HU 90 18 75
1865297N28280 1865 24 NA NA NOT_NAMED 1865-10-26 09:00:00 TS 33.6988 -65.4989 spur-other 940 940 _____________P -1 33.6988 -65.4989 HU 87 17 76
1865297N28280 1865 24 NA NA NOT_NAMED 1865-10-26 12:00:00 TS 33.9000 -64.5000 spur-other 992 991 _____________O -1 33.9000 -64.5000 HU 85 18 75
1865297N28280 1865 24 NA NA NOT_NAMED 1865-10-26 15:00:00 TS 34.1495 -63.4501 spur-other 1018 1014 _____________P -1 34.1495 -63.4501 HU 85 18 74
1865297N28280 1865 24 NA NA NOT_NAMED 1865-10-26 18:00:00 TS 34.4000 -62.4000 spur-other 1043 1038 _____________O -1 34.4000 -62.4000 HU 85 17 76
1865297N28280 1865 24 NA NA NOT_NAMED 1865-10-26 21:00:00 TS 34.5746 -61.4571 spur-other 1043 1043 _____________P -1 34.5746 -61.4571 HU 85 17 76
1865297N28280 1865 24 NA NA NOT_NAMED 1865-10-27 00:00:00 TS 34.8000 -60.4000 spur-other 1055 1052 _____________O -1 34.8000 -60.4000 HU 85 21 73
1865297N28280 1865 24 NA NA NOT_NAMED 1865-10-27 03:00:00 TS 35.1702 -59.0255 spur-other 1069 1069 _____________P -1 35.1702 -59.0255 HU 85 25 71
1865297N28280 1865 24 NA NA NOT_NAMED 1865-10-27 06:00:00 TS 35.6000 -57.5000 spur-other 1102 1102 _____________O -1 35.6000 -57.5000 HU 85 26 71
1865297N28280 1865 24 NA NA NOT_NAMED 1865-10-27 09:00:00 TS 35.9984 -56.0061 spur-other 1109 1105 _____________P -1 35.9984 -56.0061 HU 82 26 72
1865297N28280 1865 24 NA NA NOT_NAMED 1865-10-27 12:00:00 TS 36.4000 -54.5000 spur-other 1123 1090 _____________O -1 36.4000 -54.5000 HU 80 25 72
1865297N28280 1865 24 NA NA NOT_NAMED 1865-10-27 15:00:00 TS 36.7981 -52.9985 spur-other 1090 1052 _____________P -1 36.7981 -52.9985 HU 80 25 72
1865297N28280 1865 24 NA NA NOT_NAMED 1865-10-27 18:00:00 TS 37.2000 -51.5000 spur-other 1054 1050 _____________O -1 37.2000 -51.5000 HU 80 23 76
1865297N28280 1865 24 NA NA NOT_NAMED 1865-10-27 21:00:00 TS 37.3628 -50.1939 spur-other 1052 1035 _____________P -1 37.3628 -50.1939 HU 77 25 71
1865297N28280 1865 24 NA NA NOT_NAMED 1865-10-28 00:00:00 TS 38.0000 -48.5000 spur-other 1030 970 _____________O -1 38.0000 -48.5000 HU 75 41 56
1865297N28280 1865 24 NA NA NOT_NAMED 1865-10-28 03:00:00 TS 39.6826 -45.8436 spur-other 971 963 _____________P -1 39.6826 -45.8436 HU 75 60 51
1865297N28280 1865 24 NA NA NOT_NAMED 1865-10-28 06:00:00 TS 41.8000 -42.5000 spur-other 999 999 _____________O -1 41.8000 -42.5000 HU 75 66 52
1865297N28280 1865 24 NA NA NOT_NAMED 1865-10-28 09:00:00 TS 43.7569 -38.9028 spur-other 1135 1135 _____________P -1 43.7569 -38.9028 HU 72 65 56
1865297N28280 1865 24 NA NA NOT_NAMED 1865-10-28 12:00:00 ET 45.5000 -35.0000 spur-other 1356 1356 _____________O -1 45.5000 -35.0000 EX 70 63 62
1865297N28280 1865 24 NA NA NOT_NAMED 1865-10-28 15:00:00 ET 46.7516 -31.0041 spur-other 1580 1280 _____________P -1 46.7516 -31.0041 EX 70 59 67
1865297N28280 1865 24 NA NA NOT_NAMED 1865-10-28 18:00:00 ET 47.8000 -27.0000 spur-other 1262 962 _____________O -1 47.8000 -27.0000 EX 70 58 69
1865297N28280 1865 24 NA NA NOT_NAMED 1865-10-28 21:00:00 ET 48.8718 -22.9760 spur-other 944 649 _____________P -1 48.8718 -22.9760 EX 65 57 67
1865297N28280 1865 24 NA NA NOT_NAMED 1865-10-29 00:00:00 ET 50.0000 -19.0000 spur-other 632 316 _____________O -1 50.0000 -19.0000 EX 60 58 66
1865297N28280 1865 24 NA NA NOT_NAMED 1865-10-29 03:00:00 ET 51.2376 -14.7142 spur-other 303 57 _____________P -1 51.2376 -14.7142 EX 60 56 63
1865297N28280 1865 24 NA NA NOT_NAMED 1865-10-29 06:00:00 ET 52.5000 -11.0000 spur-other 52 0 _____________O -1 52.5000 -11.0000 EX 60 46 56
1865297N28280 1865 24 NA NA NOT_NAMED 1865-10-29 09:00:00 ET 53.8225 -8.39707 spur-other 0 0 _____________P -1 53.8225 -8.39707 EX 60 34 43
1865297N28280 1865 24 NA NA NOT_NAMED 1865-10-29 12:00:00 ET 55.0000 -7.00000 spur-other 0 0 _____________O -1 55.0000 -7.00000 EX 60 972 22 27
1865297N28280 1865 24 NA NA NOT_NAMED 1865-10-29 15:00:00 ET 55.7417 -6.67594 spur-other 54 54 _____________P -1 55.7417 -6.67594 EX 57 13 1
1865297N28280 1865 24 NA NA NOT_NAMED 1865-10-29 18:00:00 ET 56.3000 -7.00000 spur-other 65 48 _____________O -1 56.3000 -7.00000 EX 55 12 351
1865297N28280 1865 24 NA NA NOT_NAMED 1865-10-29 21:00:00 ET 56.9000 -7.00000 spur-other 50 11 _____________P -1 56.9000 -7.00000 EX 52 12 359
1865297N28280 1865 24 NA NA NOT_NAMED 1865-10-30 00:00:00 ET 57.5000 -7.00000 spur-other 16 0 _____________O -1 57.5000 -7.00000 EX 50 12 0
1865297N28280 1865 24 NA NA NOT_NAMED 1865-10-30 03:00:00 ET 58.1500 -7.00000 spur-other 5 5 _____________P -1 58.1500 -7.00000 EX 47 13 1
1865297N28280 1865 24 NA NA NOT_NAMED 1865-10-30 06:00:00 ET 58.8000 -7.00000 spur-other 52 52 _____________O -1 58.8000 -7.00000 EX 45 13 0
1865297N28280 1865 24 NA NA NOT_NAMED 1865-10-30 09:00:00 ET 59.4125 -7.00000 spur-other 114 114 _____________P -1 59.4125 -7.00000 EX 42 12 1
1865297N28280 1865 24 NA NA NOT_NAMED 1865-10-30 12:00:00 ET 60.0000 -7.00000 spur-other 179 _____________O -1 60.0000 -7.00000 EX 40 12 3

IBTrACS Databaseについて

本データベースは、米国NOAAが公開する1842年以降の世界の熱帯低気圧のベストトラックデータアーカイブInternational Best Track Archive for Climate Stewardship (IBTrACS)を、ウェブで閲覧しやすい形式に変換したものです。

最終更新日:2021-12-03